sensor_id;sensor_type;location;lat;lon;timestamp;P1;durP1;ratioP1;P2;durP2;ratioP2
46767;SDS011;69007;48.978;18.066;2023-04-19T00:01:19;10.15;;;6.18;;
46767;SDS011;69007;48.978;18.066;2023-04-19T00:03:44;10.25;;;6.85;;
46767;SDS011;69007;48.978;18.066;2023-04-19T00:06:09;10.32;;;6.55;;
46767;SDS011;69007;48.978;18.066;2023-04-19T00:08:35;13.50;;;7.07;;
46767;SDS011;69007;48.978;18.066;2023-04-19T00:11:00;17.83;;;8.05;;
46767;SDS011;69007;48.978;18.066;2023-04-19T00:13:25;8.32;;;6.80;;
46767;SDS011;69007;48.978;18.066;2023-04-19T00:15:51;14.50;;;6.30;;
46767;SDS011;69007;48.978;18.066;2023-04-19T00:18:16;10.52;;;7.20;;
46767;SDS011;69007;48.978;18.066;2023-04-19T00:20:41;10.60;;;7.37;;
46767;SDS011;69007;48.978;18.066;2023-04-19T00:23:08;11.65;;;7.95;;
46767;SDS011;69007;48.978;18.066;2023-04-19T00:25:33;11.73;;;7.63;;
46767;SDS011;69007;48.978;18.066;2023-04-19T00:27:59;9.57;;;7.57;;
46767;SDS011;69007;48.978;18.066;2023-04-19T00:30:24;12.45;;;7.95;;
46767;SDS011;69007;48.978;18.066;2023-04-19T00:32:50;12.57;;;8.50;;
46767;SDS011;69007;48.978;18.066;2023-04-19T00:35:16;15.15;;;8.98;;
46767;SDS011;69007;48.978;18.066;2023-04-19T00:37:41;12.98;;;8.95;;
46767;SDS011;69007;48.978;18.066;2023-04-19T00:40:07;14.38;;;8.45;;
46767;SDS011;69007;48.978;18.066;2023-04-19T00:42:32;12.05;;;8.98;;
46767;SDS011;69007;48.978;18.066;2023-04-19T00:44:58;13.63;;;9.50;;
46767;SDS011;69007;48.978;18.066;2023-04-19T00:47:23;13.55;;;9.60;;
46767;SDS011;69007;48.978;18.066;2023-04-19T00:49:48;12.38;;;9.95;;
46767;SDS011;69007;48.978;18.066;2023-04-19T00:52:14;15.35;;;10.27;;
46767;SDS011;69007;48.978;18.066;2023-04-19T00:54:39;12.68;;;9.93;;
46767;SDS011;69007;48.978;18.066;2023-04-19T00:57:07;13.85;;;9.40;;
46767;SDS011;69007;48.978;18.066;2023-04-19T00:59:33;17.02;;;11.55;;
46767;SDS011;69007;48.978;18.066;2023-04-19T01:01:59;16.60;;;10.70;;
46767;SDS011;69007;48.978;18.066;2023-04-19T01:04:24;13.52;;;11.05;;
46767;SDS011;69007;48.978;18.066;2023-04-19T01:06:50;14.57;;;10.52;;
46767;SDS011;69007;48.978;18.066;2023-04-19T01:09:15;17.17;;;11.02;;
46767;SDS011;69007;48.978;18.066;2023-04-19T01:11:40;16.10;;;11.48;;
46767;SDS011;69007;48.978;18.066;2023-04-19T01:14:06;20.67;;;11.48;;
46767;SDS011;69007;48.978;18.066;2023-04-19T01:16:32;16.00;;;11.27;;
46767;SDS011;69007;48.978;18.066;2023-04-19T01:18:57;15.77;;;10.38;;
46767;SDS011;69007;48.978;18.066;2023-04-19T01:21:23;15.57;;;10.98;;
46767;SDS011;69007;48.978;18.066;2023-04-19T01:23:48;14.93;;;10.68;;
46767;SDS011;69007;48.978;18.066;2023-04-19T01:26:13;15.93;;;11.10;;
46767;SDS011;69007;48.978;18.066;2023-04-19T01:28:40;15.93;;;11.55;;
46767;SDS011;69007;48.978;18.066;2023-04-19T01:31:05;17.50;;;12.25;;
46767;SDS011;69007;48.978;18.066;2023-04-19T01:33:30;16.08;;;11.35;;
46767;SDS011;69007;48.978;18.066;2023-04-19T01:35:56;16.80;;;11.38;;
46767;SDS011;69007;48.978;18.066;2023-04-19T01:38:21;16.90;;;11.85;;
46767;SDS011;69007;48.978;18.066;2023-04-19T01:40:46;21.20;;;13.43;;
46767;SDS011;69007;48.978;18.066;2023-04-19T01:43:12;18.45;;;12.48;;
46767;SDS011;69007;48.978;18.066;2023-04-19T01:45:38;21.40;;;12.27;;
46767;SDS011;69007;48.978;18.066;2023-04-19T01:48:04;15.82;;;12.65;;
46767;SDS011;69007;48.978;18.066;2023-04-19T01:50:30;17.52;;;12.55;;
46767;SDS011;69007;48.978;18.066;2023-04-19T01:52:56;19.45;;;13.15;;
46767;SDS011;69007;48.978;18.066;2023-04-19T01:55:22;20.20;;;12.70;;
46767;SDS011;69007;48.978;18.066;2023-04-19T01:57:47;17.73;;;13.27;;
46767;SDS011;69007;48.978;18.066;2023-04-19T02:00:12;15.18;;;11.82;;
46767;SDS011;69007;48.978;18.066;2023-04-19T02:02:39;17.67;;;12.65;;
46767;SDS011;69007;48.978;18.066;2023-04-19T02:05:05;19.48;;;12.20;;
46767;SDS011;69007;48.978;18.066;2023-04-19T02:07:30;18.48;;;13.18;;
46767;SDS011;69007;48.978;18.066;2023-04-19T02:09:56;20.00;;;12.43;;
46767;SDS011;69007;48.978;18.066;2023-04-19T02:12:23;18.17;;;12.55;;
46767;SDS011;69007;48.978;18.066;2023-04-19T02:14:52;17.33;;;12.32;;
46767;SDS011;69007;48.978;18.066;2023-04-19T02:17:17;14.85;;;11.88;;
46767;SDS011;69007;48.978;18.066;2023-04-19T02:19:43;23.17;;;13.40;;
46767;SDS011;69007;48.978;18.066;2023-04-19T02:22:08;14.90;;;12.15;;
46767;SDS011;69007;48.978;18.066;2023-04-19T02:24:33;19.67;;;12.65;;
46767;SDS011;69007;48.978;18.066;2023-04-19T02:26:59;18.20;;;12.88;;
46767;SDS011;69007;48.978;18.066;2023-04-19T02:29:25;15.57;;;13.07;;
46767;SDS011;69007;48.978;18.066;2023-04-19T02:31:51;18.98;;;12.65;;
46767;SDS011;69007;48.978;18.066;2023-04-19T02:34:17;20.92;;;12.52;;
46767;SDS011;69007;48.978;18.066;2023-04-19T02:36:42;20.60;;;13.27;;
46767;SDS011;69007;48.978;18.066;2023-04-19T02:39:07;15.60;;;12.10;;
46767;SDS011;69007;48.978;18.066;2023-04-19T02:41:33;15.90;;;12.13;;
46767;SDS011;69007;48.978;18.066;2023-04-19T02:43:58;19.80;;;12.43;;
46767;SDS011;69007;48.978;18.066;2023-04-19T02:46:23;15.32;;;11.52;;
46767;SDS011;69007;48.978;18.066;2023-04-19T02:48:49;15.65;;;12.20;;
46767;SDS011;69007;48.978;18.066;2023-04-19T02:51:14;20.83;;;12.30;;
46767;SDS011;69007;48.978;18.066;2023-04-19T02:53:41;14.70;;;11.63;;
46767;SDS011;69007;48.978;18.066;2023-04-19T02:56:06;15.05;;;11.57;;
46767;SDS011;69007;48.978;18.066;2023-04-19T02:58:32;17.15;;;12.88;;
46767;SDS011;69007;48.978;18.066;2023-04-19T03:00:57;22.50;;;12.53;;
46767;SDS011;69007;48.978;18.066;2023-04-19T03:03:22;17.48;;;12.10;;
46767;SDS011;69007;48.978;18.066;2023-04-19T03:05:48;16.08;;;12.50;;
46767;SDS011;69007;48.978;18.066;2023-04-19T03:08:13;18.08;;;12.13;;
46767;SDS011;69007;48.978;18.066;2023-04-19T03:10:38;17.23;;;11.82;;
46767;SDS011;69007;48.978;18.066;2023-04-19T03:13:04;17.55;;;12.45;;
46767;SDS011;69007;48.978;18.066;2023-04-19T03:15:29;15.15;;;11.85;;
46767;SDS011;69007;48.978;18.066;2023-04-19T03:17:55;18.15;;;12.85;;
46767;SDS011;69007;48.978;18.066;2023-04-19T03:20:20;19.48;;;12.57;;
46767;SDS011;69007;48.978;18.066;2023-04-19T03:22:45;17.27;;;12.05;;
46767;SDS011;69007;48.978;18.066;2023-04-19T03:25:11;15.80;;;12.95;;
46767;SDS011;69007;48.978;18.066;2023-04-19T03:27:37;15.32;;;12.35;;
46767;SDS011;69007;48.978;18.066;2023-04-19T03:30:02;21.83;;;12.85;;
46767;SDS011;69007;48.978;18.066;2023-04-19T03:32:28;14.77;;;12.50;;
46767;SDS011;69007;48.978;18.066;2023-04-19T03:34:54;19.33;;;11.50;;
46767;SDS011;69007;48.978;18.066;2023-04-19T03:37:20;14.90;;;12.13;;
46767;SDS011;69007;48.978;18.066;2023-04-19T03:39:45;14.95;;;12.07;;
46767;SDS011;69007;48.978;18.066;2023-04-19T03:42:11;15.88;;;12.50;;
46767;SDS011;69007;48.978;18.066;2023-04-19T03:44:36;15.98;;;12.00;;
46767;SDS011;69007;48.978;18.066;2023-04-19T03:47:01;21.50;;;13.38;;
46767;SDS011;69007;48.978;18.066;2023-04-19T03:49:27;14.48;;;11.68;;
46767;SDS011;69007;48.978;18.066;2023-04-19T03:51:52;17.40;;;13.50;;
46767;SDS011;69007;48.978;18.066;2023-04-19T03:54:17;19.13;;;12.67;;
46767;SDS011;69007;48.978;18.066;2023-04-19T03:56:43;22.65;;;14.15;;
46767;SDS011;69007;48.978;18.066;2023-04-19T03:59:08;18.80;;;13.65;;
46767;SDS011;69007;48.978;18.066;2023-04-19T04:01:33;16.08;;;12.68;;
46767;SDS011;69007;48.978;18.066;2023-04-19T04:03:59;19.80;;;13.77;;
46767;SDS011;69007;48.978;18.066;2023-04-19T04:06:24;21.27;;;13.55;;
46767;SDS011;69007;48.978;18.066;2023-04-19T04:08:50;17.27;;;13.40;;
46767;SDS011;69007;48.978;18.066;2023-04-19T04:11:16;18.58;;;13.70;;
46767;SDS011;69007;48.978;18.066;2023-04-19T04:13:41;19.42;;;14.00;;
46767;SDS011;69007;48.978;18.066;2023-04-19T04:16:07;19.85;;;13.77;;
46767;SDS011;69007;48.978;18.066;2023-04-19T04:18:32;18.38;;;14.02;;
46767;SDS011;69007;48.978;18.066;2023-04-19T04:20:57;20.15;;;14.23;;
46767;SDS011;69007;48.978;18.066;2023-04-19T04:23:23;22.25;;;14.60;;
46767;SDS011;69007;48.978;18.066;2023-04-19T04:25:56;20.58;;;15.45;;
46767;SDS011;69007;48.978;18.066;2023-04-19T04:28:23;23.80;;;14.57;;
46767;SDS011;69007;48.978;18.066;2023-04-19T04:30:48;23.27;;;15.43;;
46767;SDS011;69007;48.978;18.066;2023-04-19T04:33:15;22.42;;;16.33;;
46767;SDS011;69007;48.978;18.066;2023-04-19T04:35:41;23.10;;;15.73;;
46767;SDS011;69007;48.978;18.066;2023-04-19T04:38:07;21.67;;;14.65;;
46767;SDS011;69007;48.978;18.066;2023-04-19T04:40:33;21.00;;;15.50;;
46767;SDS011;69007;48.978;18.066;2023-04-19T04:42:59;23.02;;;16.27;;
46767;SDS011;69007;48.978;18.066;2023-04-19T04:45:25;24.30;;;15.38;;
46767;SDS011;69007;48.978;18.066;2023-04-19T04:47:50;23.02;;;15.82;;
46767;SDS011;69007;48.978;18.066;2023-04-19T04:50:15;20.83;;;14.77;;
46767;SDS011;69007;48.978;18.066;2023-04-19T04:52:41;22.65;;;14.63;;
46767;SDS011;69007;48.978;18.066;2023-04-19T04:55:06;26.27;;;16.30;;
46767;SDS011;69007;48.978;18.066;2023-04-19T04:57:32;22.35;;;16.83;;
46767;SDS011;69007;48.978;18.066;2023-04-19T04:59:58;24.95;;;16.45;;
46767;SDS011;69007;48.978;18.066;2023-04-19T05:02:23;26.67;;;16.60;;
46767;SDS011;69007;48.978;18.066;2023-04-19T05:04:49;27.40;;;18.40;;
46767;SDS011;69007;48.978;18.066;2023-04-19T05:07:14;22.45;;;16.25;;
46767;SDS011;69007;48.978;18.066;2023-04-19T05:09:40;25.20;;;16.65;;
46767;SDS011;69007;48.978;18.066;2023-04-19T05:12:05;24.33;;;15.95;;
46767;SDS011;69007;48.978;18.066;2023-04-19T05:14:31;24.17;;;17.60;;
46767;SDS011;69007;48.978;18.066;2023-04-19T05:16:56;24.08;;;16.40;;
46767;SDS011;69007;48.978;18.066;2023-04-19T05:19:21;22.70;;;16.42;;
46767;SDS011;69007;48.978;18.066;2023-04-19T05:21:47;21.48;;;16.55;;
46767;SDS011;69007;48.978;18.066;2023-04-19T05:24:12;21.48;;;15.50;;
46767;SDS011;69007;48.978;18.066;2023-04-19T05:26:37;24.95;;;14.93;;
46767;SDS011;69007;48.978;18.066;2023-04-19T05:29:03;20.48;;;15.40;;
46767;SDS011;69007;48.978;18.066;2023-04-19T05:31:28;20.02;;;14.90;;
46767;SDS011;69007;48.978;18.066;2023-04-19T05:33:53;20.33;;;15.15;;
46767;SDS011;69007;48.978;18.066;2023-04-19T05:36:19;19.83;;;14.23;;
46767;SDS011;69007;48.978;18.066;2023-04-19T05:38:44;20.92;;;13.95;;
46767;SDS011;69007;48.978;18.066;2023-04-19T05:41:09;20.98;;;15.18;;
46767;SDS011;69007;48.978;18.066;2023-04-19T05:43:35;23.50;;;15.65;;
46767;SDS011;69007;48.978;18.066;2023-04-19T05:46:01;20.05;;;15.95;;
46767;SDS011;69007;48.978;18.066;2023-04-19T05:48:26;20.33;;;15.43;;
46767;SDS011;69007;48.978;18.066;2023-04-19T05:50:51;22.88;;;15.85;;
46767;SDS011;69007;48.978;18.066;2023-04-19T05:53:19;19.83;;;16.25;;
46767;SDS011;69007;48.978;18.066;2023-04-19T05:55:44;24.75;;;16.35;;
46767;SDS011;69007;48.978;18.066;2023-04-19T05:58:12;23.35;;;17.63;;
46767;SDS011;69007;48.978;18.066;2023-04-19T06:00:37;26.08;;;17.45;;
46767;SDS011;69007;48.978;18.066;2023-04-19T06:03:02;24.30;;;17.80;;
46767;SDS011;69007;48.978;18.066;2023-04-19T06:05:28;27.42;;;18.58;;
46767;SDS011;69007;48.978;18.066;2023-04-19T06:07:53;25.83;;;18.02;;
46767;SDS011;69007;48.978;18.066;2023-04-19T06:10:20;24.75;;;17.90;;
46767;SDS011;69007;48.978;18.066;2023-04-19T06:12:46;22.77;;;17.33;;
46767;SDS011;69007;48.978;18.066;2023-04-19T06:15:11;27.10;;;18.70;;
46767;SDS011;69007;48.978;18.066;2023-04-19T06:17:37;21.95;;;17.42;;
46767;SDS011;69007;48.978;18.066;2023-04-19T06:20:02;23.98;;;17.88;;
46767;SDS011;69007;48.978;18.066;2023-04-19T06:22:30;27.90;;;17.23;;
46767;SDS011;69007;48.978;18.066;2023-04-19T06:24:56;27.92;;;18.23;;
46767;SDS011;69007;48.978;18.066;2023-04-19T06:27:21;23.90;;;18.90;;
46767;SDS011;69007;48.978;18.066;2023-04-19T06:29:46;24.77;;;18.70;;
46767;SDS011;69007;48.978;18.066;2023-04-19T06:32:12;25.92;;;19.20;;
46767;SDS011;69007;48.978;18.066;2023-04-19T06:34:37;24.45;;;18.65;;
46767;SDS011;69007;48.978;18.066;2023-04-19T06:37:02;25.63;;;19.30;;
46767;SDS011;69007;48.978;18.066;2023-04-19T06:39:28;28.10;;;19.23;;
46767;SDS011;69007;48.978;18.066;2023-04-19T06:41:53;23.13;;;17.35;;
46767;SDS011;69007;48.978;18.066;2023-04-19T06:44:19;25.63;;;19.33;;
46767;SDS011;69007;48.978;18.066;2023-04-19T06:46:44;31.63;;;19.08;;
46767;SDS011;69007;48.978;18.066;2023-04-19T06:49:10;29.60;;;19.70;;
46767;SDS011;69007;48.978;18.066;2023-04-19T06:51:36;24.83;;;20.23;;
46767;SDS011;69007;48.978;18.066;2023-04-19T06:54:02;27.63;;;20.83;;
46767;SDS011;69007;48.978;18.066;2023-04-19T06:59:22;31.20;;;21.70;;
46767;SDS011;69007;48.978;18.066;2023-04-19T07:01:49;25.85;;;19.40;;
46767;SDS011;69007;48.978;18.066;2023-04-19T07:04:14;24.08;;;15.95;;
46767;SDS011;69007;48.978;18.066;2023-04-19T07:06:39;19.10;;;14.07;;
46767;SDS011;69007;48.978;18.066;2023-04-19T07:09:06;16.40;;;12.27;;
46767;SDS011;69007;48.978;18.066;2023-04-19T07:11:32;12.52;;;10.07;;
46767;SDS011;69007;48.978;18.066;2023-04-19T07:13:58;13.70;;;9.15;;
46767;SDS011;69007;48.978;18.066;2023-04-19T07:16:25;9.55;;;7.60;;
46767;SDS011;69007;48.978;18.066;2023-04-19T07:18:50;8.82;;;6.80;;
46767;SDS011;69007;48.978;18.066;2023-04-19T07:21:16;9.00;;;5.57;;
46767;SDS011;69007;48.978;18.066;2023-04-19T07:23:41;7.22;;;5.15;;
46767;SDS011;69007;48.978;18.066;2023-04-19T07:26:07;6.95;;;5.00;;
46767;SDS011;69007;48.978;18.066;2023-04-19T07:28:32;5.00;;;4.00;;
46767;SDS011;69007;48.978;18.066;2023-04-19T07:30:58;3.90;;;3.20;;
46767;SDS011;69007;48.978;18.066;2023-04-19T07:33:25;3.15;;;2.85;;
46767;SDS011;69007;48.978;18.066;2023-04-19T07:35:50;3.42;;;3.13;;
46767;SDS011;69007;48.978;18.066;2023-04-19T07:38:16;15.40;;;4.35;;
46767;SDS011;69007;48.978;18.066;2023-04-19T07:40:41;3.08;;;2.78;;
46767;SDS011;69007;48.978;18.066;2023-04-19T07:43:07;2.38;;;2.17;;
46767;SDS011;69007;48.978;18.066;2023-04-19T07:45:32;2.50;;;2.30;;
46767;SDS011;69007;48.978;18.066;2023-04-19T07:47:57;1.88;;;1.77;;
46767;SDS011;69007;48.978;18.066;2023-04-19T07:50:25;2.47;;;2.00;;
46767;SDS011;69007;48.978;18.066;2023-04-19T07:52:51;2.33;;;2.10;;
46767;SDS011;69007;48.978;18.066;2023-04-19T07:55:17;2.35;;;2.15;;
46767;SDS011;69007;48.978;18.066;2023-04-19T07:57:43;4.43;;;2.13;;
46767;SDS011;69007;48.978;18.066;2023-04-19T08:00:12;1.63;;;1.52;;
46767;SDS011;69007;48.978;18.066;2023-04-19T08:02:41;2.08;;;1.90;;
46767;SDS011;69007;48.978;18.066;2023-04-19T08:05:08;2.00;;;1.90;;
46767;SDS011;69007;48.978;18.066;2023-04-19T08:07:33;3.58;;;3.28;;
46767;SDS011;69007;48.978;18.066;2023-04-19T08:09:59;2.30;;;2.10;;
46767;SDS011;69007;48.978;18.066;2023-04-19T08:12:24;2.60;;;2.40;;
46767;SDS011;69007;48.978;18.066;2023-04-19T08:14:49;1.77;;;1.58;;
46767;SDS011;69007;48.978;18.066;2023-04-19T08:17:15;2.92;;;2.53;;
46767;SDS011;69007;48.978;18.066;2023-04-19T08:19:44;2.67;;;1.90;;
46767;SDS011;69007;48.978;18.066;2023-04-19T08:22:09;2.20;;;1.80;;
46767;SDS011;69007;48.978;18.066;2023-04-19T08:24:35;3.33;;;2.25;;
46767;SDS011;69007;48.978;18.066;2023-04-19T08:27:00;3.10;;;2.30;;
46767;SDS011;69007;48.978;18.066;2023-04-19T08:29:25;2.22;;;2.08;;
46767;SDS011;69007;48.978;18.066;2023-04-19T08:31:51;2.30;;;1.98;;
46767;SDS011;69007;48.978;18.066;2023-04-19T08:34:16;5.05;;;2.60;;
46767;SDS011;69007;48.978;18.066;2023-04-19T08:36:42;2.58;;;2.30;;
46767;SDS011;69007;48.978;18.066;2023-04-19T08:39:07;3.17;;;2.75;;
46767;SDS011;69007;48.978;18.066;2023-04-19T08:41:33;2.53;;;2.33;;
46767;SDS011;69007;48.978;18.066;2023-04-19T08:43:58;2.72;;;2.53;;
46767;SDS011;69007;48.978;18.066;2023-04-19T08:46:26;2.40;;;2.20;;
46767;SDS011;69007;48.978;18.066;2023-04-19T08:48:52;2.45;;;2.25;;
46767;SDS011;69007;48.978;18.066;2023-04-19T08:51:18;3.10;;;2.70;;
46767;SDS011;69007;48.978;18.066;2023-04-19T08:53:44;8.27;;;3.25;;
46767;SDS011;69007;48.978;18.066;2023-04-19T08:56:11;3.55;;;2.97;;
46767;SDS011;69007;48.978;18.066;2023-04-19T08:58:36;4.55;;;3.13;;
46767;SDS011;69007;48.978;18.066;2023-04-19T09:01:06;3.95;;;3.15;;
46767;SDS011;69007;48.978;18.066;2023-04-19T09:03:32;5.43;;;3.33;;
46767;SDS011;69007;48.978;18.066;2023-04-19T09:05:59;8.50;;;3.10;;
46767;SDS011;69007;48.978;18.066;2023-04-19T09:08:25;6.97;;;4.00;;
46767;SDS011;69007;48.978;18.066;2023-04-19T09:10:53;4.72;;;3.83;;
46767;SDS011;69007;48.978;18.066;2023-04-19T09:13:23;3.33;;;2.83;;
46767;SDS011;69007;48.978;18.066;2023-04-19T09:15:49;3.72;;;3.20;;
46767;SDS011;69007;48.978;18.066;2023-04-19T09:18:15;5.15;;;3.40;;
46767;SDS011;69007;48.978;18.066;2023-04-19T09:20:41;4.78;;;3.45;;
46767;SDS011;69007;48.978;18.066;2023-04-19T09:23:11;7.22;;;4.60;;
46767;SDS011;69007;48.978;18.066;2023-04-19T09:25:39;3.55;;;3.05;;
46767;SDS011;69007;48.978;18.066;2023-04-19T09:28:09;3.75;;;3.25;;
46767;SDS011;69007;48.978;18.066;2023-04-19T09:30:35;3.88;;;3.47;;
46767;SDS011;69007;48.978;18.066;2023-04-19T09:33:00;6.93;;;3.60;;
46767;SDS011;69007;48.978;18.066;2023-04-19T09:36:08;3.97;;;3.50;;
46767;SDS011;69007;48.978;18.066;2023-04-19T09:38:15;3.63;;;2.90;;
46767;SDS011;69007;48.978;18.066;2023-04-19T09:40:40;3.60;;;3.30;;
46767;SDS011;69007;48.978;18.066;2023-04-19T09:43:06;4.90;;;3.47;;
46767;SDS011;69007;48.978;18.066;2023-04-19T09:45:42;4.05;;;3.47;;
46767;SDS011;69007;48.978;18.066;2023-04-19T09:48:08;3.85;;;3.10;;
46767;SDS011;69007;48.978;18.066;2023-04-19T09:50:36;3.33;;;2.92;;
46767;SDS011;69007;48.978;18.066;2023-04-19T09:53:15;6.55;;;2.97;;
46767;SDS011;69007;48.978;18.066;2023-04-19T09:55:41;3.75;;;2.90;;
46767;SDS011;69007;48.978;18.066;2023-04-19T09:58:08;3.75;;;2.83;;
46767;SDS011;69007;48.978;18.066;2023-04-19T10:00:33;2.83;;;2.53;;
46767;SDS011;69007;48.978;18.066;2023-04-19T10:03:00;5.07;;;3.65;;
46767;SDS011;69007;48.978;18.066;2023-04-19T10:05:25;6.20;;;3.97;;
46767;SDS011;69007;48.978;18.066;2023-04-19T10:07:51;5.05;;;3.47;;
46767;SDS011;69007;48.978;18.066;2023-04-19T10:10:17;4.57;;;3.72;;
46767;SDS011;69007;48.978;18.066;2023-04-19T10:12:44;5.20;;;3.80;;
46767;SDS011;69007;48.978;18.066;2023-04-19T10:15:13;4.20;;;3.80;;
46767;SDS011;69007;48.978;18.066;2023-04-19T10:17:38;3.75;;;3.17;;
46767;SDS011;69007;48.978;18.066;2023-04-19T10:20:07;3.17;;;2.80;;
46767;SDS011;69007;48.978;18.066;2023-04-19T10:22:36;6.60;;;2.85;;
46767;SDS011;69007;48.978;18.066;2023-04-19T10:25:09;3.20;;;2.90;;
46767;SDS011;69007;48.978;18.066;2023-04-19T10:27:39;3.78;;;3.38;;
46767;SDS011;69007;48.978;18.066;2023-04-19T10:30:19;3.47;;;2.78;;
46767;SDS011;69007;48.978;18.066;2023-04-19T10:32:52;2.80;;;2.60;;
46767;SDS011;69007;48.978;18.066;2023-04-19T10:35:24;3.78;;;3.00;;
46767;SDS011;69007;48.978;18.066;2023-04-19T10:38:00;2.80;;;2.40;;
46767;SDS011;69007;48.978;18.066;2023-04-19T10:43:14;3.20;;;2.90;;
46767;SDS011;69007;48.978;18.066;2023-04-19T10:45:41;3.20;;;2.90;;
46767;SDS011;69007;48.978;18.066;2023-04-19T10:48:07;3.83;;;2.80;;
46767;SDS011;69007;48.978;18.066;2023-04-19T10:56:17;4.75;;;3.60;;
46767;SDS011;69007;48.978;18.066;2023-04-19T10:59:28;4.20;;;3.53;;
46767;SDS011;69007;48.978;18.066;2023-04-19T11:01:44;4.07;;;3.53;;
46767;SDS011;69007;48.978;18.066;2023-04-19T11:04:18;3.83;;;3.40;;
46767;SDS011;69007;48.978;18.066;2023-04-19T11:12:03;6.50;;;3.35;;
46767;SDS011;69007;48.978;18.066;2023-04-19T11:14:30;4.32;;;3.92;;
46767;SDS011;69007;48.978;18.066;2023-04-19T11:16:58;4.00;;;3.60;;
46767;SDS011;69007;48.978;18.066;2023-04-19T11:19:24;3.80;;;3.40;;
46767;SDS011;69007;48.978;18.066;2023-04-19T11:21:50;3.45;;;3.15;;
46767;SDS011;69007;48.978;18.066;2023-04-19T11:24:15;4.70;;;3.85;;
46767;SDS011;69007;48.978;18.066;2023-04-19T11:26:42;3.85;;;3.45;;
46767;SDS011;69007;48.978;18.066;2023-04-19T11:29:10;3.75;;;3.45;;
46767;SDS011;69007;48.978;18.066;2023-04-19T11:31:36;3.67;;;3.38;;
46767;SDS011;69007;48.978;18.066;2023-04-19T11:34:02;3.90;;;3.50;;
46767;SDS011;69007;48.978;18.066;2023-04-19T11:36:27;4.15;;;3.45;;
46767;SDS011;69007;48.978;18.066;2023-04-19T11:38:53;5.03;;;3.42;;
46767;SDS011;69007;48.978;18.066;2023-04-19T11:41:19;4.55;;;4.00;;
46767;SDS011;69007;48.978;18.066;2023-04-19T11:43:44;5.35;;;3.85;;
46767;SDS011;69007;48.978;18.066;2023-04-19T11:46:11;4.25;;;3.50;;
46767;SDS011;69007;48.978;18.066;2023-04-19T11:48:37;4.60;;;3.80;;
46767;SDS011;69007;48.978;18.066;2023-04-19T11:51:04;4.95;;;3.90;;
46767;SDS011;69007;48.978;18.066;2023-04-19T11:53:30;4.72;;;3.80;;
46767;SDS011;69007;48.978;18.066;2023-04-19T11:56:03;4.05;;;3.30;;
46767;SDS011;69007;48.978;18.066;2023-04-19T11:58:43;4.18;;;3.78;;
46767;SDS011;69007;48.978;18.066;2023-04-19T12:01:18;4.95;;;3.90;;
46767;SDS011;69007;48.978;18.066;2023-04-19T12:03:51;3.95;;;3.53;;
46767;SDS011;69007;48.978;18.066;2023-04-19T12:06:23;6.05;;;4.03;;
46767;SDS011;69007;48.978;18.066;2023-04-19T12:08:50;4.10;;;3.55;;
46767;SDS011;69007;48.978;18.066;2023-04-19T12:11:18;4.47;;;3.85;;
46767;SDS011;69007;48.978;18.066;2023-04-19T12:13:47;4.97;;;3.42;;
46767;SDS011;69007;48.978;18.066;2023-04-19T12:16:13;4.70;;;3.90;;
46767;SDS011;69007;48.978;18.066;2023-04-19T12:18:42;4.05;;;3.65;;
46767;SDS011;69007;48.978;18.066;2023-04-19T12:23:57;4.53;;;3.92;;
46767;SDS011;69007;48.978;18.066;2023-04-19T12:26:25;3.90;;;3.55;;
46767;SDS011;69007;48.978;18.066;2023-04-19T12:28:52;5.32;;;4.05;;
46767;SDS011;69007;48.978;18.066;2023-04-19T12:31:21;4.20;;;3.33;;
46767;SDS011;69007;48.978;18.066;2023-04-19T12:33:47;4.88;;;3.70;;
46767;SDS011;69007;48.978;18.066;2023-04-19T12:36:13;4.50;;;4.10;;
46767;SDS011;69007;48.978;18.066;2023-04-19T12:38:38;4.18;;;3.78;;
46767;SDS011;69007;48.978;18.066;2023-04-19T12:41:04;4.15;;;3.75;;
46767;SDS011;69007;48.978;18.066;2023-04-19T12:43:30;5.38;;;4.13;;
46767;SDS011;69007;48.978;18.066;2023-04-19T12:45:56;4.95;;;4.30;;
46767;SDS011;69007;48.978;18.066;2023-04-19T12:48:22;4.78;;;3.83;;
46767;SDS011;69007;48.978;18.066;2023-04-19T12:50:47;4.45;;;3.78;;
46767;SDS011;69007;48.978;18.066;2023-04-19T12:53:13;4.25;;;3.78;;
46767;SDS011;69007;48.978;18.066;2023-04-19T12:55:38;6.50;;;4.28;;
46767;SDS011;69007;48.978;18.066;2023-04-19T12:58:04;4.65;;;4.13;;
46767;SDS011;69007;48.978;18.066;2023-04-19T13:00:30;5.53;;;4.05;;
46767;SDS011;69007;48.978;18.066;2023-04-19T13:02:55;4.63;;;4.20;;
46767;SDS011;69007;48.978;18.066;2023-04-19T13:05:20;4.57;;;4.10;;
46767;SDS011;69007;48.978;18.066;2023-04-19T13:07:46;7.45;;;4.35;;
46767;SDS011;69007;48.978;18.066;2023-04-19T13:10:11;4.80;;;4.30;;
46767;SDS011;69007;48.978;18.066;2023-04-19T13:12:37;5.55;;;4.10;;
46767;SDS011;69007;48.978;18.066;2023-04-19T13:15:02;4.90;;;4.28;;
46767;SDS011;69007;48.978;18.066;2023-04-19T13:17:28;4.65;;;4.15;;
46767;SDS011;69007;48.978;18.066;2023-04-19T13:19:53;5.68;;;4.20;;
46767;SDS011;69007;48.978;18.066;2023-04-19T13:22:18;6.05;;;4.38;;
46767;SDS011;69007;48.978;18.066;2023-04-19T13:24:44;4.55;;;4.03;;
46767;SDS011;69007;48.978;18.066;2023-04-19T13:27:09;4.60;;;4.00;;
46767;SDS011;69007;48.978;18.066;2023-04-19T13:29:35;4.13;;;3.72;;
46767;SDS011;69007;48.978;18.066;2023-04-19T13:32:00;4.93;;;4.40;;
46767;SDS011;69007;48.978;18.066;2023-04-19T13:34:26;8.00;;;4.88;;
46767;SDS011;69007;48.978;18.066;2023-04-19T13:36:51;5.40;;;4.22;;
46767;SDS011;69007;48.978;18.066;2023-04-19T13:39:16;4.90;;;4.40;;
46767;SDS011;69007;48.978;18.066;2023-04-19T13:41:42;4.38;;;3.97;;
46767;SDS011;69007;48.978;18.066;2023-04-19T13:44:07;7.38;;;4.00;;
46767;SDS011;69007;48.978;18.066;2023-04-19T13:46:32;5.32;;;4.15;;
46767;SDS011;69007;48.978;18.066;2023-04-19T13:48:58;6.97;;;5.00;;
46767;SDS011;69007;48.978;18.066;2023-04-19T13:51:23;5.72;;;4.45;;
46767;SDS011;69007;48.978;18.066;2023-04-19T13:53:49;5.28;;;4.72;;
46767;SDS011;69007;48.978;18.066;2023-04-19T13:56:14;5.25;;;4.47;;
46767;SDS011;69007;48.978;18.066;2023-04-19T13:58:40;5.82;;;4.75;;
46767;SDS011;69007;48.978;18.066;2023-04-19T14:01:05;4.32;;;3.92;;
46767;SDS011;69007;48.978;18.066;2023-04-19T14:03:30;4.88;;;4.38;;
46767;SDS011;69007;48.978;18.066;2023-04-19T14:05:56;5.05;;;3.90;;
46767;SDS011;69007;48.978;18.066;2023-04-19T14:08:22;5.07;;;4.15;;
46767;SDS011;69007;48.978;18.066;2023-04-19T14:10:48;5.95;;;5.35;;
46767;SDS011;69007;48.978;18.066;2023-04-19T14:13:14;5.43;;;4.40;;
46767;SDS011;69007;48.978;18.066;2023-04-19T14:15:39;4.88;;;4.40;;
46767;SDS011;69007;48.978;18.066;2023-04-19T14:18:04;4.90;;;4.40;;
46767;SDS011;69007;48.978;18.066;2023-04-19T14:20:30;4.93;;;4.40;;
46767;SDS011;69007;48.978;18.066;2023-04-19T14:22:55;4.90;;;4.40;;
46767;SDS011;69007;48.978;18.066;2023-04-19T14:25:22;7.13;;;4.90;;
46767;SDS011;69007;48.978;18.066;2023-04-19T14:27:48;4.72;;;4.22;;
46767;SDS011;69007;48.978;18.066;2023-04-19T14:30:13;7.50;;;4.80;;
46767;SDS011;69007;48.978;18.066;2023-04-19T14:32:39;4.88;;;4.40;;
46767;SDS011;69007;48.978;18.066;2023-04-19T14:35:04;5.13;;;4.63;;
46767;SDS011;69007;48.978;18.066;2023-04-19T14:37:33;5.88;;;5.28;;